createdAt,value
2023-03-02T00:01:10.847Z,-1.20
2023-03-02T00:03:40.897Z,-1.10
2023-03-02T00:06:08.863Z,-1.10
2023-03-02T00:08:36.258Z,-1.20
2023-03-02T00:11:03.153Z,-1.30
2023-03-02T00:13:31.137Z,-1.30
2023-03-02T00:18:25.211Z,-1.30
2023-03-02T00:23:19.250Z,-1.20
2023-03-02T00:25:46.094Z,-1.10
2023-03-02T00:30:40.393Z,-1.00
2023-03-02T00:33:07.181Z,-1.10
2023-03-02T00:35:38.834Z,-1.10
2023-03-02T00:38:07.306Z,-1.10
2023-03-02T00:40:36.075Z,-1.20
2023-03-02T00:43:02.917Z,-1.50
2023-03-02T00:50:23.876Z,-2.00
2023-03-02T00:55:17.875Z,-1.90
2023-03-02T00:57:44.610Z,-1.80
2023-03-02T01:00:11.985Z,-1.70
2023-03-02T01:02:44.223Z,-1.70
2023-03-02T01:05:11.233Z,-1.70
2023-03-02T01:10:05.502Z,-1.80
2023-03-02T01:12:32.721Z,-1.90
2023-03-02T01:19:54.474Z,-1.90
2023-03-02T01:22:22.500Z,-1.90
2023-03-02T01:24:49.715Z,-1.90
2023-03-02T01:27:16.494Z,-1.80
2023-03-02T01:29:43.365Z,-1.60
2023-03-02T01:32:10.208Z,-1.50
2023-03-02T01:34:37.125Z,-1.30
2023-03-02T01:37:03.879Z,-1.10
2023-03-02T01:41:57.792Z,-0.90
2023-03-02T01:44:46.707Z,-0.90
2023-03-02T01:49:46.975Z,-0.70
2023-03-02T01:52:15.625Z,-0.70
2023-03-02T01:54:43.818Z,-0.70
2023-03-02T01:57:11.438Z,-0.70
2023-03-02T01:59:40.194Z,-0.70
2023-03-02T02:02:10.008Z,-0.60
2023-03-02T02:04:39.902Z,-0.60
2023-03-02T02:07:08.607Z,-0.60
2023-03-02T02:09:41.452Z,-0.60
2023-03-02T02:12:14.607Z,-0.60
2023-03-02T02:14:42.093Z,-0.60
2023-03-02T02:17:08.978Z,-0.60
2023-03-02T02:20:12.387Z,-0.60
2023-03-02T02:23:00.954Z,-0.60
2023-03-02T02:25:53.130Z,-0.70
2023-03-02T02:28:29.003Z,-0.70
2023-03-02T02:31:08.179Z,-0.80
2023-03-02T02:33:36.628Z,-1.00
2023-03-02T02:36:08.547Z,-1.00
2023-03-02T02:38:37.383Z,-1.10
2023-03-02T02:41:07.464Z,-1.30
2023-03-02T02:43:34.773Z,-1.30
2023-03-02T02:46:02.695Z,-1.40
2023-03-02T02:48:31.843Z,-1.50
2023-03-02T02:51:03.235Z,-1.50
2023-03-02T02:53:49.670Z,-1.60
2023-03-02T02:56:18.428Z,-1.70
2023-03-02T02:58:49.602Z,-1.80
2023-03-02T03:01:18.706Z,-2.10
2023-03-02T03:03:57.305Z,-2.40
2023-03-02T03:06:26.608Z,-2.60
2023-03-02T03:08:57.143Z,-2.70
2023-03-02T03:11:27.640Z,-2.80
2023-03-02T03:14:03.519Z,-2.60
2023-03-02T03:16:32.575Z,-2.50
2023-03-02T03:19:06.709Z,-2.40
2023-03-02T03:26:27.954Z,-2.10
2023-03-02T03:28:57.189Z,-2.10
2023-03-02T03:31:28.371Z,-2.20
2023-03-02T03:33:56.449Z,-2.20
2023-03-02T03:36:23.436Z,-2.30
2023-03-02T03:38:50.189Z,-2.30
2023-03-02T03:43:44.022Z,-2.10
2023-03-02T03:46:10.885Z,-2.00
2023-03-02T03:48:37.766Z,-1.90
2023-03-02T03:51:04.715Z,-1.80
2023-03-02T03:53:31.671Z,-1.70
2023-03-02T03:55:58.390Z,-1.80
2023-03-02T03:58:25.621Z,-1.90
2023-03-02T04:00:53.348Z,-1.90
2023-03-02T04:03:22.303Z,-2.00
2023-03-02T04:05:49.656Z,-2.20
2023-03-02T04:10:43.567Z,-2.40
2023-03-02T04:13:10.963Z,-2.40
2023-03-02T04:15:38.786Z,-2.30
2023-03-02T04:18:05.813Z,-2.20
2023-03-02T04:20:32.681Z,-2.20
2023-03-02T04:22:59.493Z,-2.10
2023-03-02T04:25:28.423Z,-2.10
2023-03-02T04:27:55.683Z,-2.00
2023-03-02T04:30:25.588Z,-2.00
2023-03-02T04:32:53.146Z,-2.00
2023-03-02T04:35:20.346Z,-2.00
2023-03-02T04:40:15.932Z,-2.00
2023-03-02T04:42:44.611Z,-2.00
2023-03-02T04:45:12.285Z,-2.10
2023-03-02T04:50:07.018Z,-2.00
2023-03-02T04:52:33.848Z,-2.00
2023-03-02T04:59:54.856Z,-2.20
2023-03-02T05:02:21.611Z,-2.30
2023-03-02T05:07:15.570Z,-2.60
2023-03-02T05:09:42.418Z,-2.60
2023-03-02T05:12:10.272Z,-2.50
2023-03-02T05:14:37.033Z,-2.40
2023-03-02T05:17:03.703Z,-2.40
2023-03-02T05:19:30.394Z,-2.20
2023-03-02T05:21:57.174Z,-2.10
2023-03-02T05:24:23.968Z,-2.00
2023-03-02T05:26:50.797Z,-2.00
2023-03-02T05:29:17.659Z,-2.00
2023-03-02T05:31:45.848Z,-1.90
2023-03-02T05:34:16.208Z,-2.00
2023-03-02T05:36:45.131Z,-2.00
2023-03-02T05:41:39.159Z,-2.20
2023-03-02T05:44:09.455Z,-2.20
2023-03-02T05:46:36.888Z,-2.20
2023-03-02T05:49:03.959Z,-2.10
2023-03-02T05:53:57.760Z,-2.20
2023-03-02T05:56:24.585Z,-2.20
2023-03-02T06:01:18.452Z,-2.10
2023-03-02T06:03:45.154Z,-2.10
2023-03-02T06:06:15.156Z,-2.00
2023-03-02T06:08:43.026Z,-2.00
2023-03-02T06:11:10.471Z,-2.00
2023-03-02T06:13:37.918Z,-1.90
2023-03-02T06:16:05.197Z,-2.00
2023-03-02T06:20:59.609Z,-1.90
2023-03-02T06:28:21.823Z,-1.70
2023-03-02T06:30:49.005Z,-1.60
2023-03-02T06:33:21.054Z,-1.60
2023-03-02T06:35:48.949Z,-1.60
2023-03-02T06:40:43.072Z,-1.40
2023-03-02T06:43:10.090Z,-1.40
2023-03-02T06:45:37.733Z,-1.40
2023-03-02T06:48:05.489Z,-1.30
2023-03-02T06:50:32.425Z,-1.20
2023-03-02T06:55:26.805Z,-1.10
2023-03-02T06:57:53.780Z,-1.10
2023-03-02T07:00:28.176Z,-1.00
2023-03-02T07:02:56.395Z,-1.00
2023-03-02T07:05:24.368Z,-0.90
2023-03-02T07:07:51.786Z,-0.90
2023-03-02T07:10:18.755Z,-0.80
2023-03-02T07:12:45.481Z,-0.60
2023-03-02T07:15:14.118Z,-0.70
2023-03-02T07:17:42.774Z,-0.70
2023-03-02T07:20:11.825Z,-0.60
2023-03-02T07:22:39.052Z,-0.60
2023-03-02T07:25:06.411Z,-0.60
2023-03-02T07:27:33.230Z,-0.60
2023-03-02T07:30:00.016Z,-0.50
2023-03-02T07:32:27.422Z,-0.60
2023-03-02T07:34:54.231Z,-0.60
2023-03-02T07:37:21.152Z,-0.60
2023-03-02T07:39:49.169Z,-0.50
2023-03-02T07:42:17.182Z,-0.40
2023-03-02T07:44:44.004Z,-0.40
2023-03-02T07:52:05.636Z,-0.20
2023-03-02T07:54:32.626Z,-0.20
2023-03-02T07:56:59.425Z,-0.20
2023-03-02T07:59:26.250Z,-0.10
2023-03-02T08:01:53.035Z,-0.20
2023-03-02T08:04:19.828Z,-0.10
2023-03-02T08:06:46.647Z,0.00
2023-03-02T08:09:15.785Z,0.00
2023-03-02T08:16:39.572Z,0.00
2023-03-02T08:21:33.893Z,0.00
2023-03-02T08:26:28.202Z,0.00
2023-03-02T08:28:54.964Z,0.10
2023-03-02T08:31:22.160Z,0.10
2023-03-02T08:33:48.941Z,0.20
2023-03-02T08:36:18.308Z,0.20
2023-03-02T08:38:46.388Z,0.30
2023-03-02T08:41:16.511Z,0.40
2023-03-02T08:43:43.346Z,1.10
2023-03-02T08:46:12.371Z,1.90
2023-03-02T08:48:39.320Z,2.70
2023-03-02T08:51:09.336Z,3.20
2023-03-02T08:53:39.014Z,3.10
2023-03-02T08:56:14.353Z,3.60
2023-03-02T08:58:41.068Z,4.10
2023-03-02T09:01:17.820Z,4.70
2023-03-02T09:03:45.135Z,5.40
2023-03-02T09:06:12.229Z,6.30
2023-03-02T09:08:39.231Z,6.90
2023-03-02T09:11:06.751Z,7.40
2023-03-02T09:13:33.907Z,7.90
2023-03-02T09:16:01.834Z,8.10
2023-03-02T09:18:30.672Z,8.00
2023-03-02T09:20:57.832Z,8.20
2023-03-02T09:23:26.083Z,8.70
2023-03-02T09:25:53.494Z,9.00
2023-03-02T09:28:23.611Z,9.10
2023-03-02T09:30:57.022Z,9.30
2023-03-02T09:33:24.330Z,9.80
2023-03-02T09:35:51.134Z,10.10
2023-03-02T09:38:18.742Z,9.90
2023-03-02T09:41:06.653Z,9.60
2023-03-02T09:43:45.773Z,9.70
2023-03-02T09:46:44.401Z,9.60
2023-03-02T09:49:28.709Z,9.60
2023-03-02T09:52:20.063Z,9.30
2023-03-02T09:54:46.882Z,9.50
2023-03-02T09:57:26.805Z,9.50
2023-03-02T10:00:16.447Z,9.70
2023-03-02T10:03:17.615Z,9.90
2023-03-02T10:05:47.903Z,9.90
2023-03-02T10:08:27.866Z,10.40
2023-03-02T10:11:06.722Z,10.30
2023-03-02T10:14:03.563Z,10.30
2023-03-02T10:16:36.664Z,9.90
2023-03-02T10:19:32.399Z,9.90
2023-03-02T10:22:12.179Z,9.80
2023-03-02T10:24:50.238Z,9.80
2023-03-02T10:27:33.163Z,9.80
2023-03-02T10:30:25.642Z,10.20
2023-03-02T10:32:54.909Z,9.70
2023-03-02T10:35:26.748Z,9.60
2023-03-02T10:38:00.443Z,9.80
2023-03-02T10:40:41.510Z,9.80
2023-03-02T10:43:19.093Z,9.90
2023-03-02T10:45:46.791Z,9.70
2023-03-02T10:48:15.117Z,9.70
2023-03-02T10:50:43.548Z,9.70
2023-03-02T10:53:18.049Z,9.80
2023-03-02T10:55:47.306Z,9.30
2023-03-02T10:58:22.871Z,9.50
2023-03-02T11:01:15.024Z,9.90
2023-03-02T11:03:41.777Z,10.00
2023-03-02T11:06:27.640Z,10.00
2023-03-02T11:09:07.662Z,10.10
2023-03-02T11:11:35.139Z,10.20
2023-03-02T11:14:14.257Z,9.90
2023-03-02T11:16:41.023Z,9.80
2023-03-02T11:19:12.134Z,9.40
2023-03-02T11:21:46.658Z,9.10
2023-03-02T11:24:24.340Z,9.20
2023-03-02T11:26:59.449Z,9.70
2023-03-02T11:29:34.019Z,10.10
2023-03-02T11:32:22.751Z,10.10
2023-03-02T11:34:56.946Z,10.20
2023-03-02T11:37:39.706Z,10.30
2023-03-02T11:40:26.443Z,10.10
2023-03-02T11:42:57.152Z,10.00
2023-03-02T11:45:28.205Z,9.70
2023-03-02T11:48:23.292Z,9.70
2023-03-02T11:51:00.596Z,9.80
2023-03-02T11:53:36.743Z,10.00
2023-03-02T11:56:03.708Z,9.90
2023-03-02T11:58:30.970Z,9.40
2023-03-02T12:00:58.230Z,9.00
2023-03-02T12:03:38.272Z,8.90
2023-03-02T12:06:22.291Z,8.70
2023-03-02T12:08:52.617Z,8.60
2023-03-02T12:14:06.704Z,8.40
2023-03-02T12:16:41.749Z,8.60
2023-03-02T12:19:27.202Z,8.80
2023-03-02T12:22:06.859Z,8.90
2023-03-02T12:24:36.259Z,8.90
2023-03-02T12:27:26.099Z,9.00
2023-03-02T12:30:25.091Z,8.50
2023-03-02T12:33:18.616Z,8.30
2023-03-02T12:35:47.271Z,8.10
2023-03-02T12:38:31.079Z,8.10
2023-03-02T12:41:12.688Z,7.70
2023-03-02T12:44:23.687Z,8.00
2023-03-02T12:46:51.899Z,8.40
2023-03-02T12:49:42.344Z,8.50
2023-03-02T12:52:28.950Z,8.50
2023-03-02T12:55:03.528Z,8.30
2023-03-02T12:57:31.114Z,7.80
2023-03-02T13:00:00.766Z,7.70
2023-03-02T13:02:31.118Z,7.40
2023-03-02T13:05:01.372Z,7.70
2023-03-02T13:07:35.112Z,7.90
2023-03-02T13:10:06.602Z,8.30
2023-03-02T13:12:34.074Z,8.30
2023-03-02T13:15:01.232Z,8.20
2023-03-02T13:17:31.179Z,8.10
2023-03-02T13:20:03.513Z,7.70
2023-03-02T13:22:30.703Z,7.70
2023-03-02T13:25:08.081Z,7.70
2023-03-02T13:27:35.186Z,7.70
2023-03-02T13:30:11.182Z,7.60
2023-03-02T13:32:43.465Z,7.70
2023-03-02T13:35:37.975Z,7.90
2023-03-02T13:38:13.961Z,7.70
2023-03-02T13:40:46.112Z,7.70
2023-03-02T13:43:31.422Z,7.90
2023-03-02T13:46:00.696Z,7.60
2023-03-02T13:48:28.968Z,7.30
2023-03-02T13:51:18.937Z,7.30
2023-03-02T13:53:56.432Z,7.20
2023-03-02T13:56:38.038Z,7.30
2023-03-02T13:59:16.137Z,7.30
2023-03-02T14:01:44.084Z,7.10
2023-03-02T14:04:29.128Z,7.00
2023-03-02T14:06:55.982Z,6.80
2023-03-02T14:09:22.886Z,6.60
2023-03-02T14:11:53.491Z,6.90
2023-03-02T14:14:23.901Z,7.10
2023-03-02T14:16:51.259Z,7.10
2023-03-02T14:19:18.834Z,7.10
2023-03-02T14:21:47.399Z,6.80
2023-03-02T14:24:14.579Z,6.70
2023-03-02T14:26:49.112Z,6.60
2023-03-02T14:29:28.050Z,6.60
2023-03-02T14:32:00.434Z,6.30
2023-03-02T14:34:27.315Z,6.30
2023-03-02T14:36:58.131Z,6.30
2023-03-02T14:39:31.204Z,6.40
2023-03-02T14:41:58.287Z,6.40
2023-03-02T14:46:53.106Z,6.40
2023-03-02T14:49:21.001Z,6.30
2023-03-02T14:51:57.020Z,6.20
2023-03-02T14:54:24.112Z,6.10
2023-03-02T14:56:51.895Z,6.10
2023-03-02T14:59:18.809Z,6.10
2023-03-02T15:01:45.567Z,5.90
2023-03-02T15:04:12.351Z,5.80
2023-03-02T15:06:41.176Z,5.80
2023-03-02T15:09:08.565Z,5.80
2023-03-02T15:21:26.732Z,5.10
2023-03-02T15:28:51.545Z,4.90
2023-03-02T15:31:19.336Z,4.70
2023-03-02T15:36:14.144Z,4.60
2023-03-02T15:41:11.821Z,4.00
2023-03-02T15:43:39.104Z,4.00
2023-03-02T15:46:06.927Z,4.00
2023-03-02T15:51:05.954Z,4.10
2023-03-02T15:53:37.760Z,4.10
2023-03-02T15:56:10.833Z,4.00
2023-03-02T15:58:37.763Z,4.00
2023-03-02T16:01:09.920Z,4.00
2023-03-02T16:03:38.078Z,4.00
2023-03-02T16:06:05.647Z,3.90
2023-03-02T16:11:01.846Z,3.80
2023-03-02T16:13:30.357Z,3.70
2023-03-02T16:16:00.138Z,3.70
2023-03-02T16:28:18.119Z,3.60
2023-03-02T16:30:45.865Z,3.50
2023-03-02T16:33:19.243Z,3.40
2023-03-02T16:43:10.729Z,3.40
2023-03-02T16:48:05.878Z,3.10
2023-03-02T16:50:33.165Z,3.10
2023-03-02T16:53:00.164Z,2.90
2023-03-02T16:57:54.286Z,2.70
2023-03-02T17:00:22.542Z,2.70
2023-03-02T17:02:49.720Z,2.60
2023-03-02T17:05:18.359Z,2.70
2023-03-02T17:07:45.370Z,2.70
2023-03-02T17:10:19.693Z,2.70
2023-03-02T17:15:14.319Z,2.70
2023-03-02T17:17:41.527Z,2.70
2023-03-02T17:20:10.127Z,2.70
2023-03-02T17:25:05.013Z,2.60
2023-03-02T17:27:31.894Z,2.60
2023-03-02T17:29:58.702Z,2.50
2023-03-02T17:32:25.569Z,2.50
2023-03-02T17:34:52.323Z,2.60
2023-03-02T17:37:19.178Z,2.60
2023-03-02T17:42:13.166Z,2.70
2023-03-02T17:44:40.667Z,2.70
2023-03-02T17:47:08.277Z,2.70
2023-03-02T17:49:39.503Z,2.60
2023-03-02T17:52:06.804Z,2.50
2023-03-02T18:01:55.085Z,2.50
2023-03-02T18:06:49.595Z,2.30
2023-03-02T18:09:16.534Z,2.20
2023-03-02T18:14:15.595Z,2.30
2023-03-02T18:16:42.769Z,2.30
2023-03-02T18:19:09.669Z,2.30
2023-03-02T18:21:36.734Z,2.20
2023-03-02T18:24:04.429Z,2.20
2023-03-02T18:26:31.821Z,2.10
2023-03-02T18:31:26.045Z,2.20
2023-03-02T18:33:53.395Z,2.20
2023-03-02T18:36:20.201Z,2.20
2023-03-02T18:38:46.933Z,2.20
2023-03-02T18:41:14.273Z,2.30
2023-03-02T18:43:42.911Z,2.30
2023-03-02T18:46:18.578Z,2.20
2023-03-02T18:48:45.391Z,2.10
2023-03-02T18:53:40.998Z,2.20
2023-03-02T18:56:07.738Z,2.10
2023-03-02T18:58:34.856Z,2.10
2023-03-02T19:01:02.198Z,2.10
2023-03-02T19:05:58.194Z,2.20
2023-03-02T19:08:25.811Z,2.20
2023-03-02T19:10:54.108Z,2.20
2023-03-02T19:13:21.427Z,2.20
2023-03-02T19:18:21.057Z,2.20
2023-03-02T19:20:49.498Z,2.20
2023-03-02T19:23:16.698Z,2.30
2023-03-02T19:25:44.518Z,2.20
2023-03-02T19:28:11.820Z,2.20
2023-03-02T19:30:40.116Z,2.20
2023-03-02T19:33:09.225Z,2.20
2023-03-02T19:35:37.598Z,2.10
2023-03-02T19:38:05.765Z,2.20
2023-03-02T19:43:02.004Z,2.20
2023-03-02T19:45:32.305Z,2.20
2023-03-02T19:48:00.191Z,2.30
2023-03-02T19:50:28.898Z,2.30
2023-03-02T19:52:56.935Z,2.30
2023-03-02T19:55:24.857Z,2.30
2023-03-02T19:57:56.653Z,2.20
2023-03-02T20:00:24.545Z,2.30
2023-03-02T20:02:51.377Z,2.30
2023-03-02T20:05:18.586Z,2.30
2023-03-02T20:10:24.142Z,2.20
2023-03-02T20:15:18.580Z,2.20
2023-03-02T20:20:13.009Z,2.20
2023-03-02T20:25:07.600Z,2.20
2023-03-02T20:30:01.588Z,2.10
2023-03-02T20:37:24.387Z,2.20
2023-03-02T20:42:19.250Z,2.10
2023-03-02T20:44:46.176Z,2.10
2023-03-02T20:47:15.660Z,2.10
2023-03-02T20:49:43.165Z,2.10
2023-03-02T20:52:10.146Z,2.20
2023-03-02T20:54:40.810Z,2.20
2023-03-02T20:57:08.623Z,2.20
2023-03-02T20:59:37.458Z,2.10
2023-03-02T21:02:05.552Z,2.10
2023-03-02T21:04:33.262Z,2.10
2023-03-02T21:07:00.214Z,2.10
2023-03-02T21:11:54.129Z,2.10
2023-03-02T21:16:48.126Z,2.10
2023-03-02T21:19:18.000Z,2.10
2023-03-02T21:21:45.070Z,2.20
2023-03-02T21:24:16.841Z,2.20
2023-03-02T21:26:45.325Z,2.30
2023-03-02T21:29:13.412Z,2.30
2023-03-02T21:31:43.701Z,2.30
2023-03-02T21:34:12.347Z,2.20
2023-03-02T21:36:39.434Z,2.30
2023-03-02T21:39:07.934Z,2.30
2023-03-02T21:41:35.830Z,2.30
2023-03-02T21:44:05.613Z,2.30
2023-03-02T21:46:33.924Z,2.40
2023-03-02T21:49:00.709Z,2.30
2023-03-02T21:53:54.603Z,2.30
2023-03-02T21:56:24.713Z,2.30
2023-03-02T21:58:53.637Z,2.30
2023-03-02T22:01:21.301Z,2.30
2023-03-02T22:03:48.474Z,2.30
2023-03-02T22:06:19.201Z,2.40
2023-03-02T22:08:46.000Z,2.30
2023-03-02T22:11:34.919Z,2.30
2023-03-02T22:14:14.188Z,2.30
2023-03-02T22:16:43.191Z,2.30
2023-03-02T22:19:31.291Z,2.30
2023-03-02T22:22:00.564Z,2.30
2023-03-02T22:24:30.157Z,2.40
2023-03-02T22:27:18.712Z,2.30
2023-03-02T22:29:46.999Z,2.30
2023-03-02T22:34:44.143Z,2.30
2023-03-02T22:37:22.625Z,2.40
2023-03-02T22:39:52.742Z,2.40
2023-03-02T22:42:25.306Z,2.40
2023-03-02T22:45:17.535Z,2.40
2023-03-02T22:47:48.084Z,2.40
2023-03-02T22:50:24.988Z,2.40
2023-03-02T22:52:55.331Z,2.30
2023-03-02T22:55:34.553Z,2.30
2023-03-02T22:58:21.557Z,2.30
2023-03-02T23:00:48.814Z,2.40
2023-03-02T23:03:23.934Z,2.40
2023-03-02T23:05:52.882Z,2.40
2023-03-02T23:08:28.531Z,2.40
2023-03-02T23:10:58.544Z,2.40
2023-03-02T23:13:36.144Z,2.40
2023-03-02T23:16:27.537Z,2.40
2023-03-02T23:18:56.538Z,2.40
2023-03-02T23:23:51.048Z,2.40
2023-03-02T23:26:19.574Z,2.40
2023-03-02T23:28:48.595Z,2.40
2023-03-02T23:31:16.452Z,2.40
2023-03-02T23:33:43.216Z,2.40
2023-03-02T23:36:10.506Z,2.40
2023-03-02T23:38:37.265Z,2.30
2023-03-02T23:43:31.105Z,2.40
2023-03-02T23:45:57.871Z,2.40
2023-03-02T23:48:24.671Z,2.30
2023-03-02T23:53:18.792Z,2.20
2023-03-02T23:55:49.337Z,2.30
2023-03-02T23:58:17.073Z,2.30
